createdAt,value
2023-05-11T00:02:46.297Z,1.30
2023-05-11T00:05:49.982Z,1.80
2023-05-11T00:08:54.329Z,1.27
2023-05-11T00:11:57.364Z,0.70
2023-05-11T00:15:00.509Z,1.90
2023-05-11T00:18:03.357Z,0.93
2023-05-11T00:21:06.371Z,0.80
2023-05-11T00:24:11.712Z,0.60
2023-05-11T00:27:14.954Z,1.13
2023-05-11T00:30:18.669Z,0.80
2023-05-11T00:33:22.085Z,3.30
2023-05-11T00:36:25.395Z,1.50
2023-05-11T00:39:30.044Z,0.57
2023-05-11T00:42:33.302Z,0.60
2023-05-11T00:45:36.621Z,0.90
2023-05-11T00:48:39.505Z,0.60
2023-05-11T00:51:43.655Z,1.23
2023-05-11T00:54:49.048Z,0.50
2023-05-11T00:57:51.993Z,0.60
2023-05-11T01:00:54.866Z,0.90
2023-05-11T01:03:57.863Z,1.10
2023-05-11T01:07:08.059Z,0.60
2023-05-11T01:10:18.917Z,0.80
2023-05-11T01:13:28.928Z,0.67
2023-05-11T01:16:36.894Z,1.17
2023-05-11T01:19:43.229Z,1.13
2023-05-11T01:22:57.529Z,0.70
2023-05-11T01:26:32.209Z,0.53
2023-05-11T01:29:43.108Z,0.73
2023-05-11T01:32:48.130Z,1.43
2023-05-11T01:35:53.646Z,0.53
2023-05-11T01:38:59.371Z,1.07
2023-05-11T01:42:06.096Z,0.60
2023-05-11T01:45:10.278Z,1.13
2023-05-11T01:48:18.124Z,0.50
2023-05-11T01:51:21.794Z,0.93
2023-05-11T01:54:26.223Z,0.77
2023-05-11T01:57:29.677Z,0.50
2023-05-11T02:00:33.373Z,1.10
2023-05-11T02:03:38.830Z,0.40
2023-05-11T02:06:44.305Z,0.70
2023-05-11T02:09:48.274Z,0.60
2023-05-11T02:12:53.862Z,1.13
2023-05-11T02:15:59.782Z,0.70
2023-05-11T02:19:04.843Z,0.53
2023-05-11T02:22:09.782Z,0.67
2023-05-11T02:25:13.739Z,0.30
2023-05-11T02:28:16.777Z,1.73
2023-05-11T02:31:25.118Z,0.50
2023-05-11T02:34:30.640Z,0.40
2023-05-11T02:37:35.945Z,5.97
2023-05-11T02:40:44.021Z,0.83
2023-05-11T02:43:50.837Z,0.40
2023-05-11T02:46:55.013Z,2.07
2023-05-11T02:50:02.593Z,0.77
2023-05-11T02:53:11.532Z,0.60
2023-05-11T02:56:15.001Z,0.70
2023-05-11T02:59:18.402Z,0.60
2023-05-11T03:02:21.351Z,0.57
2023-05-11T03:05:26.077Z,0.80
2023-05-11T03:08:28.932Z,1.73
2023-05-11T03:11:32.130Z,1.20
2023-05-11T03:14:36.038Z,0.60
2023-05-11T03:17:41.305Z,0.90
2023-05-11T03:20:46.292Z,1.13
2023-05-11T03:23:49.794Z,0.50
2023-05-11T03:26:53.483Z,0.30
2023-05-11T03:29:57.504Z,0.97
2023-05-11T03:33:00.509Z,0.40
2023-05-11T03:36:06.712Z,0.50
2023-05-11T03:39:12.247Z,0.93
2023-05-11T03:42:17.033Z,1.73
2023-05-11T03:45:21.778Z,0.97
2023-05-11T03:48:24.949Z,0.53
2023-05-11T03:51:31.796Z,1.20
2023-05-11T03:54:35.059Z,0.40
2023-05-11T03:57:38.227Z,0.50
2023-05-11T04:00:42.279Z,3.93
2023-05-11T04:03:52.176Z,0.40
2023-05-11T04:06:56.631Z,0.97
2023-05-11T04:09:59.668Z,0.90
2023-05-11T04:13:02.999Z,1.33
2023-05-11T04:16:06.379Z,0.20
2023-05-11T04:19:09.637Z,0.53
2023-05-11T04:22:13.967Z,0.50
2023-05-11T04:25:16.935Z,6.53
2023-05-11T04:28:19.842Z,0.40
2023-05-11T04:31:22.692Z,0.23
2023-05-11T04:34:25.590Z,0.83
2023-05-11T04:37:29.874Z,0.67
2023-05-11T04:40:34.507Z,0.30
2023-05-11T04:43:38.575Z,0.33
2023-05-11T04:46:42.279Z,0.50
2023-05-11T04:49:45.502Z,0.50
2023-05-11T04:52:50.124Z,0.57
2023-05-11T04:55:53.343Z,0.30
2023-05-11T04:58:56.546Z,0.33
2023-05-11T05:01:59.878Z,0.50
2023-05-11T05:05:03.097Z,0.30
2023-05-11T05:08:07.859Z,1.27
2023-05-11T05:11:11.484Z,0.77
2023-05-11T05:14:14.741Z,0.30
2023-05-11T05:17:18.061Z,0.30
2023-05-11T05:20:21.415Z,0.40
2023-05-11T05:23:26.007Z,0.20
2023-05-11T05:26:29.210Z,0.30
2023-05-11T05:29:32.436Z,1.93
2023-05-11T05:32:35.556Z,2.43
2023-05-11T05:35:38.534Z,0.63
2023-05-11T05:38:42.748Z,1.00
2023-05-11T05:41:45.986Z,1.30
2023-05-11T05:44:49.360Z,0.80
2023-05-11T05:47:52.680Z,0.90
2023-05-11T05:50:55.961Z,2.80
2023-05-11T05:54:00.648Z,1.80
2023-05-11T05:57:03.921Z,0.83
2023-05-11T06:00:09.568Z,0.40
2023-05-11T06:03:12.546Z,1.00
2023-05-11T06:06:15.549Z,1.10
2023-05-11T06:09:19.860Z,0.30
2023-05-11T06:12:22.736Z,0.30
2023-05-11T06:15:25.573Z,1.10
2023-05-11T06:18:28.440Z,0.80
2023-05-11T06:21:31.345Z,0.50
2023-05-11T06:24:35.581Z,0.73
2023-05-11T06:27:38.937Z,0.90
2023-05-11T06:30:42.257Z,1.60
2023-05-11T06:33:45.526Z,1.10
2023-05-11T06:36:48.790Z,1.30
2023-05-11T06:39:53.500Z,0.70
2023-05-11T06:42:56.789Z,0.67
2023-05-11T06:46:00.041Z,0.93
2023-05-11T06:49:03.338Z,0.50
2023-05-11T06:52:06.790Z,0.60
2023-05-11T06:55:14.185Z,1.70
2023-05-11T06:58:20.700Z,1.90
2023-05-11T07:01:24.075Z,2.17
2023-05-11T07:04:29.657Z,0.67
2023-05-11T07:07:33.067Z,0.30
2023-05-11T07:10:37.774Z,0.77
2023-05-11T07:13:41.152Z,1.13
2023-05-11T07:16:44.505Z,1.13
2023-05-11T07:19:47.866Z,0.57
2023-05-11T07:22:51.148Z,0.50
2023-05-11T07:25:57.505Z,5.30
2023-05-11T07:29:00.877Z,2.43
2023-05-11T07:32:03.956Z,0.50
2023-05-11T07:35:07.832Z,1.00
2023-05-11T07:38:11.917Z,1.70
2023-05-11T07:41:17.828Z,2.20
2023-05-11T07:44:20.718Z,1.43
2023-05-11T07:47:23.627Z,1.17
2023-05-11T07:50:26.672Z,1.70
2023-05-11T07:53:29.762Z,0.80
2023-05-11T07:56:34.060Z,1.13
2023-05-11T07:59:36.878Z,0.97
2023-05-11T08:02:39.808Z,1.40
2023-05-11T08:05:42.765Z,0.50
2023-05-11T08:08:45.656Z,0.70
2023-05-11T08:11:50.276Z,1.10
2023-05-11T08:14:53.360Z,0.40
2023-05-11T08:17:56.996Z,0.60
2023-05-11T08:21:00.433Z,2.33
2023-05-11T08:24:03.537Z,0.20
2023-05-11T08:27:07.887Z,0.30
2023-05-11T08:30:12.194Z,0.53
2023-05-11T08:33:33.709Z,0.37
2023-05-11T08:36:38.257Z,0.80
2023-05-11T08:39:47.170Z,0.20
2023-05-11T08:42:55.187Z,0.40
2023-05-11T08:46:01.991Z,0.30
2023-05-11T08:49:04.979Z,0.33
2023-05-11T08:52:08.088Z,3.97
2023-05-11T08:55:11.662Z,0.40
2023-05-11T08:58:19.544Z,0.50
2023-05-11T09:01:24.360Z,0.57
2023-05-11T09:04:28.055Z,0.83
2023-05-11T09:07:32.606Z,0.40
2023-05-11T09:10:35.831Z,0.33
2023-05-11T09:13:40.520Z,0.30
2023-05-11T09:16:43.483Z,0.30
2023-05-11T09:20:00.353Z,0.20
2023-05-11T09:23:03.426Z,0.20
2023-05-11T09:26:14.528Z,0.47
2023-05-11T09:29:21.753Z,2.83
2023-05-11T09:32:25.074Z,0.33
2023-05-11T09:35:29.333Z,1.23
2023-05-11T09:38:33.232Z,0.30
2023-05-11T09:41:36.526Z,0.40
2023-05-11T09:44:41.913Z,0.40
2023-05-11T09:47:46.380Z,0.40
2023-05-11T09:50:51.705Z,1.27
2023-05-11T09:53:54.691Z,0.27
2023-05-11T09:57:00.603Z,0.50
2023-05-11T10:00:05.994Z,0.40
2023-05-11T10:03:09.829Z,0.20
2023-05-11T10:06:13.380Z,0.20
2023-05-11T10:09:24.031Z,0.20
2023-05-11T10:12:28.208Z,0.30
2023-05-11T10:15:35.398Z,0.50
2023-05-11T10:18:39.360Z,0.30
2023-05-11T10:21:42.706Z,0.30
2023-05-11T10:24:46.386Z,0.20
2023-05-11T10:27:49.773Z,0.50
2023-05-11T10:30:55.394Z,0.50
2023-05-11T10:33:59.610Z,0.10
2023-05-11T10:37:03.164Z,0.30
2023-05-11T10:40:07.396Z,0.50
2023-05-11T10:43:31.745Z,0.50
2023-05-11T10:46:47.483Z,0.47
2023-05-11T10:49:57.169Z,0.50
2023-05-11T10:53:15.626Z,0.20
2023-05-11T10:56:25.048Z,0.30
2023-05-11T10:59:41.705Z,0.30
2023-05-11T11:02:46.631Z,0.30
2023-05-11T11:05:50.073Z,0.13
2023-05-11T11:08:57.476Z,0.33
2023-05-11T11:12:10.248Z,0.53
2023-05-11T11:15:13.594Z,1.50
2023-05-11T11:18:22.697Z,6.00
2023-05-11T11:21:41.171Z,0.83
2023-05-11T11:24:45.531Z,4.10
2023-05-11T11:28:01.010Z,0.93
2023-05-11T11:31:23.158Z,0.70
2023-05-11T11:34:40.232Z,0.50
2023-05-11T11:37:58.978Z,0.93
2023-05-11T11:41:03.439Z,0.70
2023-05-11T11:44:06.784Z,0.40
2023-05-11T11:47:13.568Z,0.40
2023-05-11T11:50:20.044Z,0.30
2023-05-11T11:53:42.505Z,0.23
2023-05-11T11:56:46.320Z,0.30
2023-05-11T11:59:49.603Z,0.20
2023-05-11T12:02:53.490Z,1.13
2023-05-11T12:06:02.692Z,0.53
2023-05-11T12:09:06.101Z,0.40
2023-05-11T12:12:10.947Z,0.20
2023-05-11T12:15:24.465Z,0.50
2023-05-11T12:18:27.811Z,1.00
2023-05-11T12:21:35.016Z,1.27
2023-05-11T12:24:39.318Z,0.40
2023-05-11T12:27:49.286Z,0.40
2023-05-11T12:30:58.335Z,0.47
2023-05-11T12:34:03.102Z,0.97
2023-05-11T12:37:08.928Z,0.73
2023-05-11T12:40:13.040Z,0.53
2023-05-11T12:43:18.997Z,0.87
2023-05-11T12:46:22.956Z,1.90
2023-05-11T12:49:27.596Z,0.30
2023-05-11T12:52:32.158Z,0.53
2023-05-11T12:55:35.461Z,0.43
2023-05-11T12:58:38.956Z,0.53
2023-05-11T13:01:42.385Z,0.83
2023-05-11T13:04:46.528Z,1.30
2023-05-11T13:07:58.772Z,0.87
2023-05-11T13:11:17.075Z,1.60
2023-05-11T13:14:20.297Z,0.73
2023-05-11T13:17:33.194Z,0.40
2023-05-11T13:20:36.618Z,0.47
2023-05-11T13:23:41.238Z,0.63
2023-05-11T13:26:44.470Z,1.67
2023-05-11T13:29:47.911Z,0.57
2023-05-11T13:32:51.228Z,0.50
2023-05-11T13:35:54.518Z,1.60
2023-05-11T13:38:59.384Z,0.90
2023-05-11T13:42:02.616Z,0.73
2023-05-11T13:45:06.370Z,0.80
2023-05-11T13:48:10.779Z,1.37
2023-05-11T13:51:14.214Z,2.13
2023-05-11T13:54:18.788Z,2.73
2023-05-11T13:57:22.039Z,2.53
2023-05-11T14:00:25.334Z,1.73
2023-05-11T14:03:30.650Z,0.93
2023-05-11T14:06:35.476Z,1.80
2023-05-11T14:09:40.169Z,1.03
2023-05-11T14:12:43.473Z,0.80
2023-05-11T14:15:46.763Z,1.17
2023-05-11T14:18:50.619Z,3.20
2023-05-11T14:21:54.028Z,0.60
2023-05-11T14:24:58.703Z,0.77
2023-05-11T14:28:02.106Z,1.40
2023-05-11T14:31:05.386Z,0.97
2023-05-11T14:34:08.600Z,0.60
2023-05-11T14:37:12.956Z,0.70
2023-05-11T14:40:18.194Z,0.77
2023-05-11T14:43:21.971Z,0.60
2023-05-11T14:46:26.892Z,1.10
2023-05-11T14:49:30.346Z,0.40
2023-05-11T14:52:33.563Z,0.50
2023-05-11T14:55:38.608Z,1.33
2023-05-11T14:58:42.472Z,1.33
2023-05-11T15:01:45.735Z,0.50
2023-05-11T15:04:48.998Z,0.80
2023-05-11T15:07:52.365Z,0.90
2023-05-11T15:10:57.066Z,0.77
2023-05-11T15:14:00.997Z,1.07
2023-05-11T15:17:04.226Z,0.73
2023-05-11T15:20:08.121Z,1.83
2023-05-11T15:23:11.775Z,3.13
2023-05-11T15:26:16.513Z,0.67
2023-05-11T15:29:20.687Z,0.63
2023-05-11T15:32:24.030Z,0.67
2023-05-11T15:35:27.364Z,0.67
2023-05-11T15:38:30.705Z,0.40
2023-05-11T15:41:35.569Z,0.53
2023-05-11T15:44:38.838Z,0.50
2023-05-11T15:47:42.183Z,0.30
2023-05-11T15:50:45.431Z,0.53
2023-05-11T15:53:48.684Z,0.60
2023-05-11T15:56:53.366Z,1.03
2023-05-11T15:59:56.608Z,2.07
2023-05-11T16:02:59.896Z,0.57
2023-05-11T16:06:03.233Z,1.33
2023-05-11T16:09:06.448Z,1.67
2023-05-11T16:12:11.342Z,1.40
2023-05-11T16:15:14.593Z,2.57
2023-05-11T16:18:20.054Z,1.83
2023-05-11T16:21:23.364Z,2.20
2023-05-11T16:24:26.878Z,1.73
2023-05-11T16:27:31.480Z,2.00
2023-05-11T16:30:34.771Z,0.70
2023-05-11T16:33:38.645Z,1.23
2023-05-11T16:36:41.925Z,1.30
2023-05-11T16:39:45.469Z,1.47
2023-05-11T16:42:50.110Z,2.30
2023-05-11T16:45:53.756Z,1.43
2023-05-11T16:48:58.530Z,2.07
2023-05-11T16:52:02.078Z,1.07
2023-05-11T16:55:05.799Z,1.40
2023-05-11T16:58:10.707Z,1.23
2023-05-11T17:01:14.079Z,1.47
2023-05-11T17:04:17.427Z,0.90
2023-05-11T17:07:20.747Z,1.20
2023-05-11T17:10:24.441Z,1.00
2023-05-11T17:13:29.007Z,0.90
2023-05-11T17:16:32.301Z,1.23
2023-05-11T17:19:35.556Z,1.20
2023-05-11T17:22:39.841Z,0.97
2023-05-11T17:25:44.344Z,2.80
2023-05-11T17:28:49.136Z,0.93
2023-05-11T17:31:52.822Z,1.43
2023-05-11T17:34:56.353Z,0.90
2023-05-11T17:37:59.726Z,1.23
2023-05-11T17:41:05.322Z,0.70
2023-05-11T17:44:09.883Z,0.90
2023-05-11T17:47:13.159Z,0.73
2023-05-11T17:50:16.465Z,1.00
2023-05-11T17:53:20.170Z,0.60
2023-05-11T17:56:23.447Z,1.53
2023-05-11T17:59:28.040Z,0.77
2023-05-11T18:02:31.712Z,3.90
2023-05-11T18:05:47.460Z,0.97
2023-05-11T18:08:51.996Z,1.03
2023-05-11T18:11:55.649Z,1.37
2023-05-11T18:15:00.461Z,1.67
2023-05-11T18:18:03.797Z,2.37
2023-05-11T18:21:07.270Z,2.57
2023-05-11T18:24:10.647Z,2.17
2023-05-11T18:27:13.860Z,6.13
2023-05-11T18:30:18.914Z,2.47
2023-05-11T18:33:22.471Z,2.33
2023-05-11T18:36:26.208Z,2.20
2023-05-11T18:39:29.443Z,2.17
2023-05-11T18:42:32.933Z,2.53
2023-05-11T18:45:37.727Z,4.20
2023-05-11T18:48:41.165Z,1.60
2023-05-11T18:51:44.358Z,1.97
2023-05-11T18:54:47.604Z,2.13
2023-05-11T18:57:51.475Z,1.77
2023-05-11T19:00:56.066Z,2.10
2023-05-11T19:03:59.325Z,2.23
2023-05-11T19:07:02.834Z,6.13
2023-05-11T19:10:06.499Z,2.97
2023-05-11T19:13:09.358Z,2.80
2023-05-11T19:16:13.576Z,1.93
2023-05-11T19:19:17.105Z,2.10
2023-05-11T19:22:21.350Z,2.10
2023-05-11T19:25:24.221Z,3.03
2023-05-11T19:28:27.122Z,2.63
2023-05-11T19:31:32.031Z,2.07
2023-05-11T19:34:36.148Z,2.57
2023-05-11T19:37:38.977Z,2.73
2023-05-11T19:43:47.584Z,2.90
2023-05-11T19:46:51.807Z,4.33
2023-05-11T19:49:54.837Z,3.47
2023-05-11T19:52:57.643Z,3.23
2023-05-11T19:56:00.629Z,3.50
2023-05-11T19:59:04.652Z,3.93
2023-05-11T20:02:08.944Z,4.17
2023-05-11T20:05:11.780Z,4.63
2023-05-11T20:08:14.629Z,4.17
2023-05-11T20:11:17.717Z,4.80
2023-05-11T20:14:20.539Z,4.43
2023-05-11T20:17:24.796Z,3.97
2023-05-11T20:20:27.757Z,4.40
2023-05-11T20:23:30.682Z,4.13
2023-05-11T20:26:33.536Z,4.47
2023-05-11T20:29:36.737Z,4.83
2023-05-11T20:34:06.778Z,5.37
2023-05-11T20:36:04.648Z,5.70
2023-05-11T20:39:09.171Z,5.80
2023-05-11T20:42:12.112Z,5.47
2023-05-11T20:45:15.732Z,5.87
2023-05-11T20:48:28.926Z,4.97
2023-05-11T20:51:39.016Z,5.80
2023-05-11T20:54:42.163Z,3.50
2023-05-11T20:57:44.998Z,3.77
2023-05-11T21:00:47.897Z,4.03
2023-05-11T21:03:52.336Z,3.87
2023-05-11T21:06:56.268Z,4.27
2023-05-11T21:09:59.151Z,4.50
2023-05-11T21:13:02.039Z,4.77
2023-05-11T21:16:05.299Z,3.97
2023-05-11T21:19:09.588Z,4.87
2023-05-11T21:22:12.971Z,4.27
2023-05-11T21:25:15.895Z,3.70
2023-05-11T21:28:19.111Z,4.43
2023-05-11T21:31:21.985Z,4.97
2023-05-11T21:34:26.228Z,5.03
2023-05-11T21:37:33.199Z,3.97
2023-05-11T21:40:36.011Z,3.70
2023-05-11T21:43:38.840Z,3.90
2023-05-11T21:46:41.684Z,3.83
2023-05-11T21:49:46.490Z,4.23
2023-05-11T21:52:49.302Z,3.30
2023-05-11T21:55:52.252Z,4.07
2023-05-11T21:58:55.053Z,3.77
2023-05-11T22:01:58.046Z,5.40
2023-05-11T22:05:02.202Z,4.90
2023-05-11T22:08:14.048Z,4.93
2023-05-11T22:11:19.456Z,5.47
2023-05-11T22:14:24.129Z,5.30
2023-05-11T22:17:26.997Z,5.67
2023-05-11T22:20:31.772Z,7.17
2023-05-11T22:23:35.580Z,7.03
2023-05-11T22:26:38.377Z,6.93
2023-05-11T22:29:41.161Z,7.50
2023-05-11T22:32:44.000Z,7.07
2023-05-11T22:35:48.141Z,7.37
2023-05-11T22:38:51.303Z,7.67
2023-05-11T22:41:54.222Z,7.10
2023-05-11T22:44:57.101Z,6.83
2023-05-11T22:47:59.935Z,8.40
2023-05-11T22:51:06.319Z,7.20
2023-05-11T22:54:09.116Z,7.37
2023-05-11T22:57:14.711Z,7.37
2023-05-11T23:00:18.226Z,6.37
2023-05-11T23:03:21.614Z,6.80
2023-05-11T23:06:25.808Z,5.93
2023-05-11T23:09:28.586Z,6.87
2023-05-11T23:12:31.400Z,6.70
2023-05-11T23:15:34.172Z,6.23
2023-05-11T23:18:37.086Z,6.53
2023-05-11T23:21:41.334Z,6.60
2023-05-11T23:24:44.167Z,11.70
2023-05-11T23:27:47.009Z,6.87
2023-05-11T23:30:50.069Z,7.60
2023-05-11T23:33:52.855Z,7.57
2023-05-11T23:36:56.990Z,6.90
2023-05-11T23:39:59.795Z,12.03
2023-05-11T23:43:02.589Z,8.83
2023-05-11T23:46:05.419Z,8.07
2023-05-11T23:49:08.216Z,8.27
2023-05-11T23:52:12.373Z,8.03
2023-05-11T23:55:15.156Z,7.40
2023-05-11T23:58:17.961Z,8.63
